Time;durP1;ratioP1;P1;durP2;ratioP2;P2;SDS_P1;SDS_P2;PMS_P1;PMS_P2;Temp;Humidity;BMP_temperature;BMP_pressure;BME280_temperature;BME280_humidity;BME280_pressure;Samples;Min_cycle;Max_cycle;Signal;HPM_P1;HPM_P2
2022/01/11 00:02:16;;;;;;;24.50;3.97;;;26.50;78.50;;;;;;5070667;28;20044;-68
2022/01/11 00:04:44;;;;;;;17.42;3.75;;;26.50;78.40;;;;;;5050287;28;20052;-68
2022/01/11 00:07:14;;;;;;;13.85;3.50;;;26.50;78.20;;;;;;5070203;28;20025;-69
2022/01/11 00:09:43;;;;;;;12.38;2.92;;;26.60;78.50;;;;;;5070050;28;20028;-68
2022/01/11 00:12:10;;;;;;;17.48;3.00;;;26.70;78.00;;;;;;5067859;28;20031;-68
2022/01/11 00:14:38;;;;;;;31.20;4.55;;;26.70;77.20;;;;;;5069810;28;20078;-70
2022/01/11 00:17:05;;;;;;;14.57;3.80;;;26.80;76.70;;;;;;5034902;28;20032;-69
2022/01/11 00:19:33;;;;;;;18.00;4.70;;;26.80;77.30;;;;;;5068515;28;20028;-69
2022/01/11 00:22:03;;;;;;;15.63;2.92;;;26.80;76.40;;;;;;5070720;28;20111;-69
2022/01/11 00:24:32;;;;;;;13.93;3.25;;;26.90;77.00;;;;;;5066321;28;20025;-68
2022/01/11 00:27:00;;;;;;;17.17;3.50;;;27.00;76.20;;;;;;5069599;28;20037;-69
2022/01/11 00:29:27;;;;;;;16.40;4.35;;;27.00;76.20;;;;;;5068901;28;20032;-68
2022/01/11 00:41:51;;;;;;;21.73;3.65;;;26.60;76.10;;;;;;5080714;28;20568;-69
2022/01/11 00:44:18;;;;;;;16.50;2.83;;;26.60;76.50;;;;;;5044278;28;20040;-70
2022/01/11 00:46:45;;;;;;;11.48;3.13;;;26.70;76.20;;;;;;5050861;28;20032;-69
2022/01/11 00:49:13;;;;;;;22.40;3.92;;;26.70;75.00;;;;;;5069936;28;20021;-69
2022/01/11 00:51:40;;;;;;;10.15;2.70;;;26.70;75.50;;;;;;5051612;28;20039;-68
2022/01/11 00:54:07;;;;;;;16.35;3.35;;;26.70;75.00;;;;;;5030989;28;20033;-70
2022/01/11 00:56:34;;;;;;;19.05;3.70;;;26.80;75.20;;;;;;5046784;28;20057;-70
2022/01/11 00:59:01;;;;;;;22.85;4.05;;;26.80;75.00;;;;;;5042342;28;20068;-69
2022/01/11 01:01:37;;;;;;;16.20;3.75;;;26.80;74.90;;;;;;5032665;28;21578;-69
2022/01/11 01:04:06;;;;;;;24.50;4.97;;;26.80;74.00;;;;;;5069363;28;20122;-70
2022/01/11 01:06:34;;;;;;;12.68;3.15;;;26.80;75.80;;;;;;5070520;28;20032;-70
2022/01/11 01:09:01;;;;;;;15.63;3.20;;;26.80;75.20;;;;;;5069104;28;22009;-69
2022/01/11 01:11:28;;;;;;;16.45;3.00;;;26.80;75.00;;;;;;5068625;28;20043;-70
2022/01/11 01:13:55;;;;;;;55.33;5.82;;;26.80;75.30;;;;;;5068307;28;20025;-69
2022/01/11 01:16:22;;;;;;;14.68;3.15;;;26.80;75.60;;;;;;5068735;28;20041;-69
2022/01/11 01:18:50;;;;;;;23.25;3.50;;;26.80;75.30;;;;;;5064769;28;20049;-69
2022/01/11 01:21:17;;;;;;;19.27;3.33;;;26.80;76.00;;;;;;5058701;28;20033;-69
2022/01/11 01:23:45;;;;;;;76.28;7.85;;;26.80;75.60;;;;;;5063315;23;20437;-68
2022/01/11 01:26:12;;;;;;;25.88;4.40;;;26.80;75.90;;;;;;5062412;28;20046;-68
2022/01/11 01:28:39;;;;;;;17.17;4.40;;;26.80;76.50;;;;;;5069349;28;20041;-68
2022/01/11 01:31:06;;;;;;;35.17;5.28;;;26.70;76.60;;;;;;5069760;28;20037;-68
2022/01/11 01:33:34;;;;;;;17.92;3.75;;;26.70;77.00;;;;;;5069323;28;20025;-68
2022/01/11 01:36:03;;;;;;;25.52;4.32;;;26.70;77.00;;;;;;5068096;28;20394;-68
2022/01/11 01:38:31;;;;;;;19.88;3.55;;;26.70;77.10;;;;;;5070106;28;20378;-68
2022/01/11 01:41:07;;;;;;;30.23;6.10;;;26.60;77.30;;;;;;5070370;28;20067;-68
2022/01/11 01:43:34;;;;;;;13.88;3.35;;;26.60;78.00;;;;;;5053253;28;20039;-67
2022/01/11 01:46:01;;;;;;;14.98;3.22;;;26.60;77.40;;;;;;5074433;28;20029;-68
2022/01/11 01:48:29;;;;;;;13.15;4.65;;;26.60;77.40;;;;;;5059245;28;20044;-68
2022/01/11 01:50:56;;;;;;;20.65;4.55;;;26.60;76.70;;;;;;5077802;28;20394;-68
2022/01/11 01:53:24;;;;;;;12.65;3.55;;;26.50;76.80;;;;;;5073859;28;20041;-68
2022/01/11 01:55:51;;;;;;;14.80;3.45;;;26.50;76.60;;;;;;5035502;28;20133;-68
2022/01/11 01:58:18;;;;;;;19.88;4.43;;;26.40;76.60;;;;;;5068731;28;20039;-68
2022/01/11 02:00:51;;;;;;;14.70;3.35;;;26.40;76.90;;;;;;5070124;28;20093;-68
2022/01/11 02:03:25;;;;;;;19.75;4.60;;;26.40;77.20;;;;;;5069144;28;20040;-69
2022/01/11 02:05:53;;;;;;;16.63;3.78;;;26.40;78.00;;;;;;5070056;28;20116;-69
2022/01/11 02:08:21;;;;;;;18.15;3.85;;;26.30;77.00;;;;;;5069497;28;20115;-68
2022/01/11 02:10:48;;;;;;;13.85;2.95;;;26.30;77.80;;;;;;5051919;28;20037;-69
2022/01/11 02:13:15;;;;;;;15.45;3.35;;;26.30;77.80;;;;;;5051537;28;20063;-69
2022/01/11 02:15:42;;;;;;;16.73;3.70;;;26.30;77.10;;;;;;5056535;28;20045;-69
2022/01/11 02:18:14;;;;;;;17.42;4.07;;;26.30;77.60;;;;;;5069571;28;20079;-69
2022/01/11 02:20:44;;;;;;;17.20;4.70;;;26.20;77.70;;;;;;5070111;28;20182;-69
2022/01/11 03:20:29;;;;;;;14.68;3.38;;;26.30;78.20;;;;;;5061107;28;20138;-66
2022/01/11 03:22:56;;;;;;;16.15;3.83;;;26.30;77.70;;;;;;5055000;28;20067;-67
2022/01/11 03:25:25;;;;;;;22.38;3.92;;;26.30;78.20;;;;;;5048355;28;20022;-67
2022/01/11 03:27:52;;;;;;;23.48;4.28;;;26.30;79.00;;;;;;5061323;28;20040;-66
2022/01/11 03:30:19;;;;;;;30.38;4.63;;;26.30;78.70;;;;;;5054559;28;20124;-67
2022/01/11 03:32:47;;;;;;;19.77;4.03;;;26.20;79.10;;;;;;5038663;28;20768;-66
2022/01/11 03:35:14;;;;;;;30.85;4.60;;;26.20;79.00;;;;;;5053545;28;20048;-66
2022/01/11 03:37:41;;;;;;;26.35;5.10;;;26.30;79.50;;;;;;5044111;28;20116;-66
2022/01/11 03:40:11;;;;;;;18.83;3.60;;;26.30;79.30;;;;;;5059185;28;20026;-64
2022/01/11 03:42:38;;;;;;;20.17;4.47;;;26.30;79.20;;;;;;5040892;28;20033;-66
2022/01/11 03:45:06;;;;;;;26.13;4.10;;;26.20;79.30;;;;;;5060489;28;20029;-66
2022/01/11 03:47:33;;;;;;;28.38;6.53;;;26.20;79.40;;;;;;5038356;28;20487;-66
2022/01/11 03:50:00;;;;;;;25.30;4.85;;;26.20;80.20;;;;;;5073999;28;20107;-66
2022/01/11 03:52:28;;;;;;;23.98;5.85;;;26.20;80.40;;;;;;5039221;28;20064;-66
2022/01/11 03:57:23;;;;;;;14.60;4.07;;;26.20;80.40;;;;;;5050913;28;20037;-67
2022/01/11 03:59:50;;;;;;;22.85;4.35;;;26.20;79.80;;;;;;5052412;28;20033;-66
2022/01/11 04:02:17;;;;;;;21.40;4.88;;;26.20;79.20;;;;;;5051141;28;20036;-66
2022/01/11 04:04:52;;;;;;;20.15;4.38;;;26.10;79.20;;;;;;5045022;28;20076;-66
2022/01/11 04:07:24;;;;;;;16.85;4.68;;;26.10;79.30;;;;;;5054772;28;20025;-66
2022/01/11 04:09:51;;;;;;;17.10;3.88;;;26.00;79.20;;;;;;5047079;28;20079;-66
2022/01/11 04:12:19;;;;;;;18.08;4.35;;;26.00;79.30;;;;;;5063462;28;20097;-66
2022/01/11 04:14:46;;;;;;;16.27;3.60;;;26.00;78.80;;;;;;5035526;28;20035;-66
2022/01/11 04:17:13;;;;;;;19.85;5.20;;;26.00;79.40;;;;;;5054700;28;20064;-66
2022/01/11 04:19:40;;;;;;;21.50;4.60;;;26.10;79.70;;;;;;5057620;28;20371;-66
2022/01/11 04:22:08;;;;;;;16.13;3.85;;;26.10;79.80;;;;;;5053706;28;20041;-66
2022/01/11 04:24:35;;;;;;;22.13;4.90;;;26.10;79.60;;;;;;5017463;28;20442;-65
2022/01/11 04:27:02;;;;;;;20.23;4.32;;;26.10;80.20;;;;;;5036990;28;20033;-65
2022/01/11 04:29:29;;;;;;;18.63;4.57;;;26.10;79.80;;;;;;5033709;28;20479;-66
2022/01/11 04:31:57;;;;;;;16.67;4.18;;;26.10;80.10;;;;;;5032328;28;20033;-66
2022/01/11 04:34:25;;;;;;;23.05;4.20;;;26.10;80.10;;;;;;5037889;28;20041;-66
2022/01/11 04:36:52;;;;;;;30.90;5.03;;;26.10;80.20;;;;;;5058408;28;20076;-66
2022/01/11 04:39:19;;;;;;;20.48;3.90;;;26.10;80.70;;;;;;5055701;28;20102;-65
2022/01/11 04:41:47;;;;;;;23.83;3.97;;;26.10;80.50;;;;;;5059121;28;20029;-67
2022/01/11 04:44:14;;;;;;;32.25;6.15;;;26.10;80.10;;;;;;5061893;28;20485;-66
2022/01/11 04:46:41;;;;;;;19.00;4.85;;;26.10;80.70;;;;;;5058409;28;20045;-67
2022/01/11 04:49:08;;;;;;;26.63;4.72;;;26.10;80.30;;;;;;5049202;28;20029;-67
2022/01/11 04:51:35;;;;;;;14.45;3.58;;;26.10;80.30;;;;;;5050899;28;20033;-67
2022/01/11 04:54:03;;;;;;;22.67;4.05;;;26.00;79.90;;;;;;5050927;28;20029;-66
2022/01/11 04:56:30;;;;;;;20.90;4.53;;;26.00;79.80;;;;;;5038287;28;20077;-68
2022/01/11 04:58:57;;;;;;;14.32;4.05;;;26.00;80.00;;;;;;5051268;28;20029;-67
2022/01/11 05:01:25;;;;;;;23.02;4.93;;;26.00;80.10;;;;;;5032604;28;20037;-68
2022/01/11 05:03:52;;;;;;;29.50;5.35;;;26.00;81.00;;;;;;5054168;28;20035;-68
2022/01/11 05:06:19;;;;;;;27.13;4.78;;;26.00;80.70;;;;;;5054269;28;20033;-67
2022/01/11 05:08:48;;;;;;;23.13;3.97;;;26.00;80.80;;;;;;5053469;28;20044;-67
2022/01/11 05:11:16;;;;;;;25.07;4.03;;;26.00;80.50;;;;;;5048102;28;20120;-67
2022/01/11 05:13:43;;;;;;;19.67;3.90;;;26.00;80.30;;;;;;5055633;28;20281;-67
2022/01/11 05:16:11;;;;;;;66.03;5.70;;;26.00;79.90;;;;;;5054333;28;20116;-67
2022/01/11 05:18:38;;;;;;;24.00;3.58;;;26.00;80.60;;;;;;5055650;28;20028;-67
2022/01/11 05:21:05;;;;;;;37.47;4.35;;;26.00;79.80;;;;;;5057732;28;20097;-67
2022/01/11 05:23:34;;;;;;;18.70;4.20;;;26.00;80.40;;;;;;5069771;28;20039;-68
2022/01/11 05:26:02;;;;;;;26.08;5.53;;;26.00;80.30;;;;;;5070431;28;20067;-67
2022/01/11 05:28:30;;;;;;;23.98;3.88;;;26.00;80.60;;;;;;5073418;28;20036;-68
2022/01/11 05:30:57;;;;;;;18.25;4.82;;;25.90;79.80;;;;;;5052017;28;20033;-67
2022/01/11 05:33:24;;;;;;;24.40;5.07;;;25.90;80.20;;;;;;5073411;28;20050;-67
2022/01/11 05:35:51;;;;;;;22.85;3.60;;;25.90;80.50;;;;;;5070429;28;20137;-67
2022/01/11 05:38:18;;;;;;;23.50;4.00;;;25.80;79.80;;;;;;5072107;28;20397;-68
2022/01/11 05:40:46;;;;;;;17.98;4.30;;;25.80;80.00;;;;;;5070601;28;20459;-67
2022/01/11 05:43:14;;;;;;;17.38;3.35;;;25.80;80.40;;;;;;5045956;28;20048;-67
2022/01/11 06:12:42;;;;;;;27.00;4.28;;;25.70;80.70;;;;;;5054144;28;20529;-68
2022/01/11 06:15:09;;;;;;;19.33;4.30;;;25.70;80.90;;;;;;5035935;28;20036;-66
2022/01/11 06:17:36;;;;;;;16.75;3.95;;;25.70;80.90;;;;;;5058925;28;20049;-69
2022/01/11 06:20:05;;;;;;;14.50;3.50;;;25.70;80.90;;;;;;5053483;28;20112;-68
2022/01/11 06:22:32;;;;;;;28.40;6.05;;;25.70;81.00;;;;;;5050706;28;20033;-68
2022/01/11 06:25:03;;;;;;;16.83;3.47;;;25.70;81.40;;;;;;5053204;28;20029;-69
2022/01/11 06:27:31;;;;;;;15.02;3.28;;;25.70;81.10;;;;;;5052901;28;20068;-70
2022/01/11 06:29:58;;;;;;;15.60;3.53;;;25.70;80.60;;;;;;5019614;28;20087;-69
2022/01/11 06:32:25;;;;;;;10.68;3.17;;;25.80;80.60;;;;;;5053063;28;20037;-69
2022/01/11 06:34:53;;;;;;;15.88;4.35;;;25.80;80.40;;;;;;5048999;28;20040;-68
2022/01/11 06:37:21;;;;;;;29.33;6.30;;;25.80;80.20;;;;;;5045236;28;20033;-68
2022/01/11 06:39:48;;;;;;;21.45;4.97;;;25.80;80.00;;;;;;5048503;28;20373;-69
2022/01/11 06:42:15;;;;;;;25.02;4.25;;;25.80;80.10;;;;;;5055054;28;20393;-67
2022/01/11 06:44:43;;;;;;;21.10;3.92;;;25.70;80.20;;;;;;5043034;28;20101;-66
2022/01/11 06:47:10;;;;;;;15.27;3.65;;;25.70;80.30;;;;;;5048354;28;20055;-73
2022/01/11 06:49:38;;;;;;;16.02;3.50;;;25.70;80.00;;;;;;5052066;28;20049;-69
2022/01/11 06:52:05;;;;;;;22.85;4.85;;;25.70;80.30;;;;;;5052397;28;20586;-68
2022/01/11 06:54:32;;;;;;;16.00;3.75;;;25.70;80.70;;;;;;5060205;28;20360;-68
2022/01/11 06:57:00;;;;;;;18.70;3.90;;;25.70;80.60;;;;;;5028876;28;20550;-69
2022/01/11 06:59:27;;;;;;;13.30;3.17;;;25.70;80.90;;;;;;5051043;28;20107;-67
2022/01/11 07:01:54;;;;;;;19.20;3.80;;;25.70;80.90;;;;;;5046245;28;20108;-66
2022/01/11 07:04:21;;;;;;;16.42;4.00;;;25.60;80.90;;;;;;5049463;28;20047;-67
2022/01/11 07:06:48;;;;;;;17.13;3.20;;;25.60;80.50;;;;;;5051030;28;20029;-68
2022/01/11 07:09:15;;;;;;;20.73;5.30;;;25.60;80.90;;;;;;5057559;28;20112;-67
2022/01/11 07:11:43;;;;;;;13.10;3.47;;;25.60;81.20;;;;;;5050797;28;20076;-67
2022/01/11 07:14:11;;;;;;;17.63;4.55;;;25.60;81.30;;;;;;5054891;28;20037;-67
2022/01/11 07:16:39;;;;;;;12.18;3.15;;;25.70;81.80;;;;;;5068881;28;20339;-67
2022/01/11 07:19:06;;;;;;;20.23;4.53;;;25.60;81.80;;;;;;5048314;28;20455;-67
2022/01/11 07:21:34;;;;;;;22.05;4.65;;;25.60;82.00;;;;;;5067559;28;20487;-67
2022/01/11 07:24:02;;;;;;;13.95;3.22;;;25.60;82.00;;;;;;5047844;28;20060;-68
2022/01/11 07:26:30;;;;;;;16.17;4.03;;;25.60;82.10;;;;;;5071015;28;20083;-68
2022/01/11 07:28:57;;;;;;;19.42;3.80;;;25.60;82.20;;;;;;5068942;28;20040;-67
2022/01/11 07:31:24;;;;;;;18.90;3.95;;;25.60;82.10;;;;;;5068038;28;20400;-68
2022/01/11 07:33:51;;;;;;;21.45;3.78;;;25.60;81.90;;;;;;5064931;28;20036;-69
2022/01/11 07:36:18;;;;;;;16.27;3.78;;;25.60;81.60;;;;;;5052990;28;20029;-69
2022/01/11 07:38:45;;;;;;;15.55;3.10;;;25.50;81.40;;;;;;5071026;28;20039;-69
2022/01/11 07:41:13;;;;;;;21.95;3.63;;;25.50;81.60;;;;;;5068088;28;20358;-69
2022/01/11 07:43:40;;;;;;;17.65;3.85;;;25.50;81.80;;;;;;5047393;28;20036;-68
2022/01/11 07:46:07;;;;;;;17.63;5.05;;;25.50;81.80;;;;;;5066437;28;20051;-68
2022/01/11 07:48:34;;;;;;;17.80;4.30;;;25.50;81.80;;;;;;5054682;28;20049;-67
2022/01/11 07:51:01;;;;;;;21.23;4.05;;;25.50;81.90;;;;;;5070392;28;20506;-67
2022/01/11 07:53:28;;;;;;;18.73;4.82;;;25.50;81.90;;;;;;5069636;28;20087;-67
2022/01/11 07:55:55;;;;;;;16.88;4.20;;;25.50;81.60;;;;;;5065922;28;20045;-67
2022/01/11 07:58:23;;;;;;;19.25;3.63;;;25.50;81.70;;;;;;5061449;28;20131;-67
2022/01/11 08:00:50;;;;;;;22.92;4.53;;;25.50;81.80;;;;;;5053628;28;20486;-67
2022/01/11 08:03:17;;;;;;;18.98;4.15;;;25.50;81.70;;;;;;5036872;28;20032;-67
2022/01/11 08:05:44;;;;;;;17.92;3.63;;;25.40;82.10;;;;;;5035920;28;20067;-67
2022/01/11 08:08:12;;;;;;;23.45;4.90;;;25.40;81.80;;;;;;5072059;28;20040;-67
2022/01/11 08:10:39;;;;;;;21.20;3.95;;;25.40;82.10;;;;;;5070474;28;20036;-67
2022/01/11 08:13:08;;;;;;;16.50;3.78;;;25.30;81.90;;;;;;5072123;28;20051;-67
2022/01/11 08:15:35;;;;;;;15.57;3.80;;;25.30;82.10;;;;;;5072246;28;20037;-67
2022/01/11 08:18:03;;;;;;;21.38;4.03;;;25.30;82.20;;;;;;5053788;28;20044;-66
2022/01/11 10:38:11;;;;;;;18.35;3.72;;;24.80;82.80;;;;;;5052769;28;20056;-67
2022/01/11 10:40:43;;;;;;;19.90;4.95;;;24.80;82.70;;;;;;5059800;28;20036;-67
2022/01/11 10:43:14;;;;;;;16.98;4.05;;;24.80;82.70;;;;;;5068957;28;20506;-66
2022/01/11 10:45:44;;;;;;;19.88;3.67;;;24.70;82.40;;;;;;5069197;28;20060;-66
2022/01/11 10:48:13;;;;;;;17.42;4.13;;;24.70;82.20;;;;;;5055301;28;20040;-67
2022/01/11 10:50:50;;;;;;;18.73;4.10;;;24.80;82.10;;;;;;5059989;28;20544;-65
2022/01/11 10:53:22;;;;;;;22.55;3.92;;;24.80;82.10;;;;;;5072492;28;20037;-65
2022/01/11 10:55:54;;;;;;;21.92;3.83;;;24.70;81.50;;;;;;5071686;28;20064;-68
2022/01/11 10:58:22;;;;;;;18.40;3.63;;;24.70;81.30;;;;;;5072133;28;20036;-68
2022/01/11 11:00:56;;;;;;;23.90;4.30;;;24.70;81.40;;;;;;5072323;28;20104;-65
2022/01/11 11:03:25;;;;;;;25.20;4.22;;;24.70;81.60;;;;;;5072334;28;20119;-67
2022/01/11 11:05:55;;;;;;;25.15;9.02;;;24.70;81.50;;;;;;5072051;28;20040;-65
2022/01/11 11:08:34;;;;;;;16.48;4.40;;;24.70;81.60;;;;;;5062425;28;20032;-66
2022/01/11 11:11:09;;;;;;;28.65;4.88;;;24.70;81.40;;;;;;5070482;28;20047;-66
2022/01/11 11:13:44;;;;;;;13.60;3.25;;;24.70;81.30;;;;;;5072079;28;20106;-66
2022/01/11 11:16:17;;;;;;;17.00;3.25;;;24.60;80.60;;;;;;5055312;28;20130;-66
2022/01/11 11:18:48;;;;;;;18.33;3.25;;;24.60;81.00;;;;;;5072506;28;20028;-66
2022/01/11 11:21:32;;;;;;;17.75;3.45;;;24.60;80.40;;;;;;5073212;28;20033;-66
2022/01/11 11:23:59;;;;;;;18.98;3.53;;;24.60;80.80;;;;;;5072196;28;20033;-66
2022/01/11 11:26:36;;;;;;;15.27;3.67;;;24.60;80.80;;;;;;5072081;28;20102;-65
2022/01/11 11:29:04;;;;;;;14.80;3.28;;;24.60;80.30;;;;;;5071233;28;20363;-66
2022/01/11 11:31:34;;;;;;;24.00;4.05;;;24.50;80.40;;;;;;5072248;28;20115;-67
2022/01/11 11:34:02;;;;;;;24.98;4.45;;;24.60;80.70;;;;;;5038166;28;20501;-66
2022/01/11 11:36:29;;;;;;;22.27;3.45;;;24.50;80.90;;;;;;5052942;28;20394;-67
2022/01/11 13:02:00;;;;;;;16.00;3.65;;;24.20;81.30;;;;;;5068165;28;20057;-71
2022/01/11 13:04:57;;;;;;;18.58;4.00;;;24.20;81.40;;;;;;5070852;28;20024;-72
2022/01/11 13:07:26;;;;;;;30.88;4.70;;;24.20;81.30;;;;;;5052312;28;20040;-71
2022/01/11 13:10:06;;;;;;;16.27;2.92;;;24.20;81.40;;;;;;5063867;28;20032;-71
2022/01/11 13:12:36;;;;;;;21.23;3.97;;;24.20;81.10;;;;;;5060023;28;20033;-71
2022/01/11 13:15:17;;;;;;;16.50;3.13;;;24.20;81.10;;;;;;5058031;28;20072;-71
2022/01/11 13:17:56;;;;;;;16.70;3.53;;;24.20;81.10;;;;;;5049875;28;20582;-71
2022/01/11 13:20:24;;;;;;;18.70;3.40;;;24.20;81.20;;;;;;5051920;28;20124;-72
2022/01/11 13:23:03;;;;;;;13.32;2.75;;;24.20;81.20;;;;;;5070302;28;20404;-71
2022/01/11 13:25:38;;;;;;;15.52;2.80;;;24.20;80.90;;;;;;5062629;28;20037;-71
2022/01/11 13:28:06;;;;;;;21.60;3.60;;;24.20;80.70;;;;;;5066906;28;20037;-71
2022/01/11 13:30:38;;;;;;;21.13;3.20;;;24.20;80.90;;;;;;5067573;28;20024;-71
2022/01/11 13:33:05;;;;;;;22.40;3.97;;;24.20;81.00;;;;;;5058221;28;20617;-71
2022/01/11 13:35:32;;;;;;;17.98;3.33;;;24.20;81.00;;;;;;5062395;28;20045;-71
2022/01/11 13:38:10;;;;;;;11.95;2.83;;;24.20;80.40;;;;;;5065358;28;20112;-71
2022/01/11 13:40:39;;;;;;;21.23;4.40;;;24.10;80.50;;;;;;5070178;28;20372;-71
2022/01/11 13:43:07;;;;;;;14.38;3.22;;;24.20;80.70;;;;;;5069692;28;20441;-70
2022/01/11 13:45:36;;;;;;;18.48;3.58;;;24.10;80.90;;;;;;5062542;28;20040;-70
2022/01/11 13:48:17;;;;;;;15.20;3.72;;;24.10;80.70;;;;;;5047865;28;20033;-71
2022/01/11 13:50:58;;;;;;;17.80;3.35;;;24.10;80.90;;;;;;5074027;28;20032;-70
2022/01/11 13:53:27;;;;;;;18.77;3.83;;;24.10;80.70;;;;;;5070563;28;20497;-71
2022/01/11 13:56:00;;;;;;;17.65;2.97;;;24.10;80.30;;;;;;5048626;28;20060;-71
2022/01/11 13:58:29;;;;;;;11.48;2.60;;;24.00;80.30;;;;;;5045711;28;20487;-71
2022/01/11 16:42:38;;;;;;;11.23;2.95;;;23.80;80.40;;;;;;5036471;28;20098;-72
2022/01/11 16:45:09;;;;;;;11.43;2.83;;;23.70;80.10;;;;;;5067196;28;20033;-71
2022/01/11 16:47:37;;;;;;;14.32;2.42;;;23.70;80.20;;;;;;5048474;28;20131;-72
2022/01/11 16:50:05;;;;;;;18.10;3.55;;;23.70;80.50;;;;;;5044328;28;20043;-72
2022/01/11 16:52:33;;;;;;;16.13;2.38;;;23.70;80.30;;;;;;5064487;28;20060;-71
2022/01/11 16:55:00;;;;;;;15.88;2.95;;;23.70;80.30;;;;;;5066522;28;20740;-71
2022/01/11 16:57:28;;;;;;;17.90;2.78;;;23.70;80.50;;;;;;5038606;28;20126;-72
2022/01/11 16:59:55;;;;;;;16.30;3.00;;;23.70;80.30;;;;;;5063193;28;20064;-71
2022/01/11 17:02:23;;;;;;;12.55;2.58;;;23.70;79.70;;;;;;5060630;28;20032;-71
2022/01/11 17:04:51;;;;;;;12.27;2.60;;;23.60;80.10;;;;;;5059934;28;21084;-71
2022/01/11 17:07:18;;;;;;;13.52;2.42;;;23.70;80.20;;;;;;5070622;28;20499;-71
2022/01/11 17:09:46;;;;;;;15.93;3.22;;;23.60;80.30;;;;;;5070026;28;20033;-71
2022/01/11 17:12:13;;;;;;;14.10;2.47;;;23.60;80.50;;;;;;5069449;28;20037;-71
2022/01/11 17:14:41;;;;;;;18.95;3.72;;;23.60;80.40;;;;;;5067151;28;20443;-71
2022/01/11 17:17:08;;;;;;;15.10;3.08;;;23.60;80.80;;;;;;5055435;28;20049;-70
2022/01/11 17:19:35;;;;;;;14.80;2.88;;;23.60;80.80;;;;;;5069244;28;20055;-71
2022/01/11 17:22:02;;;;;;;16.17;3.00;;;23.60;80.50;;;;;;5059043;28;20041;-71
2022/01/11 17:24:29;;;;;;;19.33;3.95;;;23.60;80.70;;;;;;5049481;28;20036;-71
2022/01/11 17:26:57;;;;;;;14.20;2.92;;;23.60;81.10;;;;;;5050068;28;20391;-71
2022/01/11 17:29:24;;;;;;;16.05;3.20;;;23.60;81.10;;;;;;5034335;28;20053;-71
2022/01/11 17:31:51;;;;;;;11.93;3.10;;;23.60;81.10;;;;;;5048963;28;20055;-71
2022/01/11 17:34:20;;;;;;;16.20;2.97;;;23.60;80.30;;;;;;5053496;28;20029;-71
2022/01/11 17:36:48;;;;;;;15.90;3.42;;;23.60;80.50;;;;;;5065379;28;20045;-71
2022/01/11 17:39:15;;;;;;;10.20;3.15;;;23.60;80.50;;;;;;5059927;28;20110;-72
2022/01/11 17:41:42;;;;;;;16.30;2.55;;;23.60;80.20;;;;;;5040929;28;20399;-71
2022/01/11 21:22:06;;;;;;;7.13;1.95;;;23.60;84.20;;;;;;5039599;28;20044;-70
2022/01/11 21:24:33;;;;;;;17.52;3.22;;;23.60;83.50;;;;;;5061692;28;20087;-71
2022/01/11 21:27:01;;;;;;;13.35;2.65;;;23.50;83.50;;;;;;5063557;28;20085;-70
2022/01/11 21:29:28;;;;;;;15.52;2.72;;;23.60;83.70;;;;;;5042664;28;20040;-71
2022/01/11 21:31:56;;;;;;;10.57;1.83;;;23.70;83.40;;;;;;5069254;28;20036;-70
2022/01/11 21:34:23;;;;;;;14.60;3.83;;;23.70;83.50;;;;;;5061205;28;20584;-71
2022/01/11 21:36:50;;;;;;;9.02;2.05;;;23.80;83.50;;;;;;5060890;28;20049;-71
2022/01/11 21:39:17;;;;;;;8.32;2.17;;;23.80;83.20;;;;;;5062273;28;20035;-70
2022/01/11 21:41:45;;;;;;;10.05;2.20;;;23.90;83.30;;;;;;5066397;28;20036;-70
2022/01/11 21:44:27;;;;;;;17.13;2.90;;;23.90;82.90;;;;;;5061549;28;20418;-69
2022/01/11 21:46:55;;;;;;;12.75;2.05;;;23.80;82.60;;;;;;5063680;28;20147;-70
2022/01/11 21:49:24;;;;;;;34.35;3.53;;;23.90;82.60;;;;;;5045255;28;20036;-70
2022/01/11 21:51:51;;;;;;;10.70;2.10;;;23.90;82.10;;;;;;5067428;28;20059;-70
2022/01/11 21:54:19;;;;;;;10.32;1.83;;;23.80;82.30;;;;;;5060505;28;20144;-71
2022/01/11 21:56:46;;;;;;;20.85;2.50;;;23.80;82.20;;;;;;5039093;28;20041;-67
2022/01/11 21:59:13;;;;;;;20.95;2.70;;;23.80;82.30;;;;;;5058343;28;20069;-71
2022/01/11 22:01:40;;;;;;;7.07;2.00;;;23.70;82.60;;;;;;5061897;28;20047;-71
2022/01/11 22:04:08;;;;;;;25.98;3.88;;;23.70;82.80;;;;;;5029694;28;20622;-73
2022/01/11 22:06:35;;;;;;;13.00;5.05;;;23.70;82.60;;;;;;5064903;28;20036;-71
2022/01/11 22:09:02;;;;;;;17.42;2.95;;;23.70;82.60;;;;;;5069500;28;20035;-70
2022/01/11 22:11:29;;;;;;;21.33;3.95;;;23.80;82.80;;;;;;5051672;28;20516;-70
2022/01/11 22:14:03;;;;;;;9.20;2.00;;;23.80;83.10;;;;;;5067630;28;20078;-69
2022/01/11 22:19:06;;;;;;;20.95;3.63;;;24.00;82.90;;;;;;5052928;28;20078;-68
2022/01/11 22:21:33;;;;;;;11.90;2.45;;;24.00;81.80;;;;;;5050745;28;20414;-69
2022/01/11 22:24:01;;;;;;;10.68;2.67;;;24.00;81.40;;;;;;5067796;28;20351;-69
2022/01/11 22:26:28;;;;;;;20.25;2.97;;;24.00;81.90;;;;;;5068144;28;20111;-68
2022/01/11 22:28:55;;;;;;;20.15;4.20;;;24.00;81.50;;;;;;5068891;28;20483;-71
2022/01/11 22:31:22;;;;;;;13.05;3.10;;;24.00;81.80;;;;;;5068789;28;20090;-69
2022/01/11 22:33:50;;;;;;;14.70;2.20;;;24.00;81.40;;;;;;5063998;28;20040;-71
2022/01/11 22:36:17;;;;;;;16.00;2.72;;;24.00;82.10;;;;;;5061797;28;20094;-71
2022/01/11 22:38:44;;;;;;;9.90;2.05;;;24.00;81.90;;;;;;5064631;28;20025;-69
2022/01/11 22:41:11;;;;;;;53.20;4.53;;;24.10;81.10;;;;;;5069277;28;20025;-69
2022/01/11 22:43:39;;;;;;;44.17;5.18;;;24.10;81.60;;;;;;5068078;28;20037;-66
2022/01/11 22:46:06;;;;;;;44.33;6.57;;;24.10;81.50;;;;;;5050922;28;20099;-68
2022/01/11 22:48:33;;;;;;;45.42;6.13;;;24.20;81.80;;;;;;5065166;28;20048;-69
2022/01/11 22:51:01;;;;;;;31.48;4.53;;;24.20;81.10;;;;;;5064676;28;20478;-67
2022/01/11 23:35:09;;;;;;;15.32;2.53;;;24.70;77.70;;;;;;5061635;23;20122;-65
2022/01/11 23:37:46;;;;;;;36.22;3.30;;;24.70;78.60;;;;;;5053822;28;20043;-68
2022/01/11 23:48:02;;;;;;;9.77;2.90;;;24.90;76.70;;;;;;5018285;28;20032;-68
2022/01/11 23:50:29;;;;;;;12.02;2.28;;;24.80;77.40;;;;;;5051765;28;20119;-69
2022/01/11 23:52:56;;;;;;;7.55;2.13;;;24.90;77.20;;;;;;5033811;28;20598;-66
2022/01/11 23:55:23;;;;;;;40.05;4.47;;;24.80;76.30;;;;;;5051896;28;20032;-65
2022/01/11 23:57:52;;;;;;;13.57;2.45;;;24.80;76.80;;;;;;5029128;28;20046;-65
